createdAt,value
2022-10-28T00:01:24.976Z,61.99
2022-10-28T00:03:55.105Z,61.94
2022-10-28T00:06:33.733Z,61.56
2022-10-28T00:09:01.828Z,62.00
2022-10-28T00:11:31.840Z,62.12
2022-10-28T00:14:01.926Z,62.35
2022-10-28T00:16:31.689Z,62.16
2022-10-28T00:19:00.147Z,62.37
2022-10-28T00:21:30.178Z,62.01
2022-10-28T00:23:57.870Z,62.06
2022-10-28T00:26:27.686Z,61.56
2022-10-28T00:29:00.006Z,61.90
2022-10-28T00:31:29.291Z,62.21
2022-10-28T00:33:58.629Z,62.17
2022-10-28T00:36:34.322Z,62.12
2022-10-28T00:39:03.292Z,62.38
2022-10-28T00:41:33.989Z,62.71
2022-10-28T00:44:23.211Z,62.52
2022-10-28T00:46:53.194Z,62.01
2022-10-28T00:49:27.596Z,62.61
2022-10-28T00:52:01.255Z,63.08
2022-10-28T00:54:29.941Z,62.92
2022-10-28T00:56:58.215Z,62.85
2022-10-28T00:59:34.405Z,62.49
2022-10-28T01:02:02.195Z,62.56
2022-10-28T01:04:29.580Z,62.35
2022-10-28T01:06:57.464Z,62.42
2022-10-28T01:12:15.830Z,62.56
2022-10-28T01:15:20.725Z,62.41
2022-10-28T01:17:56.297Z,62.10
2022-10-28T01:21:04.747Z,62.61
2022-10-28T01:23:35.993Z,63.20
2022-10-28T01:26:25.635Z,63.10
2022-10-28T01:29:08.407Z,62.85
2022-10-28T01:31:50.233Z,62.75
2022-10-28T01:34:37.834Z,62.60
2022-10-28T01:37:14.857Z,62.89
2022-10-28T01:39:47.937Z,62.98
2022-10-28T01:42:15.430Z,62.94
2022-10-28T01:45:02.602Z,62.87
2022-10-28T01:47:43.606Z,62.91
2022-10-28T01:50:25.223Z,62.73
2022-10-28T01:52:55.779Z,62.77
2022-10-28T01:55:29.311Z,63.09
2022-10-28T01:57:58.715Z,62.63
2022-10-28T02:00:26.473Z,62.43
2022-10-28T02:02:55.650Z,62.60
2022-10-28T02:05:46.766Z,62.41
2022-10-28T02:08:35.727Z,62.60
2022-10-28T02:11:34.767Z,62.88
2022-10-28T02:14:11.409Z,62.70
2022-10-28T02:16:44.370Z,62.71
2022-10-28T02:19:47.515Z,63.35
2022-10-28T02:22:17.646Z,63.66
2022-10-28T02:25:17.668Z,63.79
2022-10-28T02:27:50.315Z,63.98
2022-10-28T02:30:24.868Z,63.51
2022-10-28T02:32:56.683Z,63.64
2022-10-28T02:35:41.106Z,63.78
2022-10-28T02:38:11.631Z,63.64
2022-10-28T02:40:40.565Z,63.08
2022-10-28T02:43:09.991Z,62.83
2022-10-28T02:45:42.407Z,63.22
2022-10-28T02:48:16.362Z,63.93
2022-10-28T02:50:47.046Z,64.07
2022-10-28T02:53:19.527Z,64.06
2022-10-28T02:55:51.027Z,63.59
2022-10-28T02:58:19.054Z,63.03
2022-10-28T03:00:47.077Z,63.18
2022-10-28T03:03:14.414Z,63.98
2022-10-28T03:05:42.000Z,63.96
2022-10-28T03:08:09.323Z,63.63
2022-10-28T03:10:36.618Z,63.75
2022-10-28T03:13:04.158Z,63.35
2022-10-28T03:15:31.443Z,63.66
2022-10-28T03:17:58.755Z,63.97
2022-10-28T03:20:26.322Z,64.59
2022-10-28T03:22:53.795Z,65.06
2022-10-28T03:25:21.275Z,64.06
2022-10-28T03:27:48.858Z,64.42
2022-10-28T03:30:18.377Z,63.92
2022-10-28T03:32:45.669Z,64.41
2022-10-28T03:35:13.280Z,64.61
2022-10-28T03:37:44.086Z,64.46
2022-10-28T03:40:12.066Z,64.43
2022-10-28T03:42:42.772Z,64.92
2022-10-28T03:45:10.609Z,64.26
2022-10-28T03:47:37.902Z,64.13
2022-10-28T03:50:05.797Z,64.49
2022-10-28T03:52:33.099Z,64.34
2022-10-28T03:55:00.427Z,64.19
2022-10-28T03:57:31.427Z,64.54
2022-10-28T03:59:58.834Z,64.22
2022-10-28T04:02:26.761Z,64.90
2022-10-28T04:04:54.413Z,64.87
2022-10-28T04:07:21.958Z,65.12
2022-10-28T04:09:51.371Z,65.15
2022-10-28T04:12:19.203Z,65.00
2022-10-28T04:14:46.537Z,64.84
2022-10-28T04:17:13.900Z,64.87
2022-10-28T04:19:41.646Z,64.87
2022-10-28T04:22:09.698Z,64.84
2022-10-28T04:24:36.976Z,64.84
2022-10-28T04:27:04.569Z,64.78
2022-10-28T04:29:32.154Z,64.64
2022-10-28T04:31:59.595Z,64.28
2022-10-28T04:34:27.166Z,64.63
2022-10-28T04:36:54.453Z,64.57
2022-10-28T04:39:21.788Z,64.95
2022-10-28T04:41:49.651Z,64.67
2022-10-28T04:44:16.947Z,64.55
2022-10-28T04:46:44.316Z,64.30
2022-10-28T04:49:11.935Z,64.72
2022-10-28T04:51:39.279Z,64.54
2022-10-28T04:54:06.759Z,64.77
2022-10-28T04:56:34.338Z,64.75
2022-10-28T04:59:01.627Z,64.91
2022-10-28T05:01:29.032Z,65.00
2022-10-28T05:03:56.712Z,65.22
2022-10-28T05:06:24.061Z,64.79
2022-10-28T05:08:51.367Z,64.91
2022-10-28T05:11:18.954Z,64.92
2022-10-28T05:13:46.293Z,65.19
2022-10-28T05:16:13.595Z,67.66
2022-10-28T05:18:41.191Z,66.58
2022-10-28T05:21:08.519Z,65.09
2022-10-28T05:23:35.842Z,64.77
2022-10-28T05:26:03.498Z,65.07
2022-10-28T05:28:30.813Z,65.14
2022-10-28T05:30:58.138Z,64.75
2022-10-28T05:33:25.693Z,64.73
2022-10-28T05:35:53.005Z,65.17
2022-10-28T05:38:20.319Z,64.86
2022-10-28T05:40:47.882Z,64.98
2022-10-28T05:43:15.179Z,65.06
2022-10-28T05:45:42.523Z,65.42
2022-10-28T05:48:10.156Z,65.53
2022-10-28T05:50:37.528Z,65.70
2022-10-28T05:53:04.816Z,65.70
2022-10-28T05:55:32.412Z,65.89
2022-10-28T05:57:59.961Z,66.07
2022-10-28T06:00:27.350Z,65.91
2022-10-28T06:03:09.232Z,65.68
2022-10-28T06:05:37.963Z,65.61
2022-10-28T06:08:05.785Z,65.70
2022-10-28T06:10:33.475Z,65.68
2022-10-28T06:12:59.297Z,65.90
2022-10-28T06:15:26.883Z,65.85
2022-10-28T06:17:54.196Z,65.88
2022-10-28T06:20:21.517Z,65.56
2022-10-28T06:22:54.140Z,65.22
2022-10-28T06:25:22.652Z,65.26
2022-10-28T06:27:57.956Z,65.39
2022-10-28T06:30:26.287Z,65.34
2022-10-28T06:32:57.098Z,65.50
2022-10-28T06:35:24.380Z,65.66
2022-10-28T06:37:56.343Z,65.38
2022-10-28T06:40:24.164Z,65.44
2022-10-28T06:43:05.340Z,65.47
2022-10-28T06:45:33.597Z,65.15
2022-10-28T06:48:04.904Z,65.07
2022-10-28T06:50:33.108Z,65.30
2022-10-28T06:53:00.965Z,65.72
2022-10-28T06:55:28.950Z,65.67
2022-10-28T06:58:00.486Z,65.61
2022-10-28T07:03:02.688Z,65.29
2022-10-28T07:05:30.375Z,65.28
2022-10-28T07:07:57.694Z,65.26
2022-10-28T07:10:25.095Z,65.11
2022-10-28T07:12:53.433Z,64.29
2022-10-28T07:15:21.653Z,64.71
2022-10-28T07:17:56.061Z,65.08
2022-10-28T07:20:26.130Z,65.31
2022-10-28T07:23:01.118Z,65.34
2022-10-28T07:25:31.818Z,64.97
2022-10-28T07:27:59.333Z,64.69
2022-10-28T07:30:27.915Z,65.08
2022-10-28T07:32:55.958Z,65.29
2022-10-28T07:35:23.535Z,65.00
2022-10-28T07:37:50.834Z,65.10
2022-10-28T07:40:20.434Z,65.14
2022-10-28T07:42:47.802Z,64.48
2022-10-28T07:45:15.262Z,65.19
2022-10-28T07:47:43.215Z,64.82
2022-10-28T07:50:11.380Z,64.35
2022-10-28T07:52:38.712Z,64.37
2022-10-28T07:55:07.701Z,64.53
2022-10-28T07:57:35.545Z,66.16
2022-10-28T08:00:04.706Z,64.72
2022-10-28T08:02:38.185Z,63.70
2022-10-28T08:05:06.298Z,64.83
2022-10-28T08:07:36.331Z,64.79
2022-10-28T08:10:06.936Z,64.63
2022-10-28T08:12:34.509Z,63.94
2022-10-28T08:15:02.678Z,64.40
2022-10-28T08:17:30.647Z,64.32
2022-10-28T08:19:58.092Z,64.04
2022-10-28T08:22:25.474Z,64.27
2022-10-28T08:24:53.050Z,64.19
2022-10-28T08:27:20.369Z,63.89
2022-10-28T08:29:47.692Z,63.37
2022-10-28T08:32:15.254Z,63.25
2022-10-28T08:34:43.709Z,63.29
2022-10-28T08:37:11.581Z,63.51
2022-10-28T08:39:40.704Z,62.44
2022-10-28T08:42:29.279Z,63.18
2022-10-28T08:45:21.334Z,63.61
2022-10-28T08:48:10.870Z,63.85
2022-10-28T08:50:46.422Z,63.40
2022-10-28T08:53:41.653Z,63.42
2022-10-28T08:56:46.154Z,63.40
2022-10-28T08:59:18.434Z,63.70
2022-10-28T09:04:42.222Z,63.41
2022-10-28T09:07:15.935Z,63.53
2022-10-28T09:09:43.250Z,63.52
2022-10-28T09:12:10.773Z,63.33
2022-10-28T09:14:44.359Z,63.20
2022-10-28T09:17:20.243Z,63.05
2022-10-28T09:19:52.760Z,62.96
2022-10-28T09:22:30.692Z,63.18
2022-10-28T09:25:01.767Z,63.18
2022-10-28T09:27:44.663Z,62.98
2022-10-28T09:30:30.442Z,62.79
2022-10-28T09:33:50.828Z,62.95
2022-10-28T09:36:27.262Z,62.60
2022-10-28T09:38:56.609Z,63.13
2022-10-28T09:41:44.344Z,63.50
2022-10-28T09:44:20.032Z,63.16
2022-10-28T09:46:49.075Z,62.75
2022-10-28T09:49:21.348Z,62.55
2022-10-28T09:51:53.387Z,63.25
2022-10-28T09:54:29.025Z,63.10
2022-10-28T09:56:56.389Z,63.37
2022-10-28T09:59:26.819Z,63.19
2022-10-28T10:01:54.282Z,63.51
2022-10-28T10:04:23.888Z,63.38
2022-10-28T10:06:54.493Z,63.32
2022-10-28T10:09:25.797Z,62.70
2022-10-28T10:11:55.913Z,62.79
2022-10-28T10:15:05.653Z,62.85
2022-10-28T10:17:44.955Z,62.79
2022-10-28T10:20:18.388Z,62.50
2022-10-28T10:22:48.270Z,62.44
2022-10-28T10:25:18.575Z,62.13
2022-10-28T10:28:05.121Z,62.56
2022-10-28T10:30:40.307Z,62.67
2022-10-28T10:33:18.619Z,61.79
2022-10-28T10:35:57.799Z,62.58
2022-10-28T10:38:28.153Z,62.51
2022-10-28T10:40:55.832Z,62.80
2022-10-28T10:43:36.759Z,62.65
2022-10-28T10:46:15.893Z,62.79
2022-10-28T10:48:43.747Z,62.55
2022-10-28T10:51:24.298Z,62.16
2022-10-28T10:54:00.821Z,62.23
2022-10-28T10:56:30.552Z,62.05
2022-10-28T10:59:02.301Z,62.02
2022-10-28T11:01:38.797Z,62.38
2022-10-28T11:04:07.860Z,62.56
2022-10-28T11:06:39.946Z,62.50
2022-10-28T11:09:17.814Z,62.38
2022-10-28T11:11:45.414Z,62.33
2022-10-28T11:14:13.382Z,62.44
2022-10-28T11:16:54.583Z,62.26
2022-10-28T11:19:24.810Z,62.49
2022-10-28T11:22:06.713Z,62.79
2022-10-28T11:24:58.184Z,62.81
2022-10-28T11:27:39.182Z,62.35
2022-10-28T11:30:13.223Z,62.45
2022-10-28T11:33:02.210Z,61.94
2022-10-28T11:35:54.655Z,62.03
2022-10-28T11:38:43.272Z,61.94
2022-10-28T11:41:32.751Z,62.05
2022-10-28T11:44:05.007Z,62.32
2022-10-28T11:46:48.359Z,62.44
2022-10-28T11:49:59.113Z,62.55
2022-10-28T11:52:45.350Z,62.22
2022-10-28T11:55:27.316Z,62.52
2022-10-28T11:58:06.233Z,62.64
2022-10-28T12:00:42.294Z,62.56
2022-10-28T12:03:34.303Z,62.69
2022-10-28T12:06:07.336Z,62.82
2022-10-28T12:08:40.885Z,62.42
2022-10-28T12:11:26.851Z,62.54
2022-10-28T12:14:22.137Z,62.57
2022-10-28T12:17:03.846Z,62.73
2022-10-28T12:19:39.041Z,63.44
2022-10-28T12:22:28.009Z,62.99
2022-10-28T12:24:56.931Z,63.01
2022-10-28T12:27:28.786Z,62.49
2022-10-28T12:30:01.568Z,62.51
2022-10-28T12:32:31.765Z,62.92
2022-10-28T12:35:03.476Z,63.00
2022-10-28T12:37:47.811Z,63.63
2022-10-28T12:40:20.802Z,63.78
2022-10-28T12:42:52.576Z,63.61
2022-10-28T12:45:20.620Z,63.56
2022-10-28T12:47:58.088Z,63.38
2022-10-28T12:50:32.300Z,63.18
2022-10-28T12:53:02.397Z,66.03
2022-10-28T12:55:42.872Z,63.93
2022-10-28T12:58:13.284Z,63.66
2022-10-28T13:00:43.951Z,62.71
2022-10-28T13:03:15.418Z,62.69
2022-10-28T13:06:12.451Z,62.84
2022-10-28T13:11:46.217Z,62.81
2022-10-28T13:14:27.832Z,62.96
2022-10-28T13:17:27.698Z,62.89
2022-10-28T13:20:07.698Z,63.02
2022-10-28T13:22:47.451Z,62.92
2022-10-28T13:25:20.633Z,62.52
2022-10-28T13:27:48.906Z,62.96
2022-10-28T13:30:17.743Z,63.21
2022-10-28T13:32:45.448Z,63.76
2022-10-28T13:35:16.323Z,63.83
2022-10-28T13:37:46.714Z,63.74
2022-10-28T13:40:34.509Z,63.51
2022-10-28T13:43:02.276Z,63.35
2022-10-28T13:45:49.491Z,63.98
2022-10-28T13:48:28.619Z,63.83
2022-10-28T13:51:11.331Z,66.18
2022-10-28T13:53:47.737Z,65.86
2022-10-28T13:56:22.426Z,65.50
2022-10-28T13:58:51.932Z,65.41
2022-10-28T14:01:56.782Z,64.87
2022-10-28T14:04:38.039Z,64.33
2022-10-28T14:07:11.328Z,62.60
2022-10-28T14:12:33.171Z,62.57
2022-10-28T14:15:05.421Z,62.22
2022-10-28T14:17:46.213Z,62.39
2022-10-28T14:20:24.275Z,62.74
2022-10-28T14:22:52.944Z,62.45
2022-10-28T14:25:43.760Z,62.99
2022-10-28T14:28:29.553Z,63.13
2022-10-28T14:31:09.231Z,63.31
2022-10-28T14:33:49.987Z,63.19
2022-10-28T14:36:17.441Z,63.58
2022-10-28T14:39:12.157Z,63.34
2022-10-28T14:41:54.919Z,63.37
2022-10-28T14:44:39.822Z,63.63
2022-10-28T14:47:18.254Z,64.23
2022-10-28T14:49:58.640Z,64.31
2022-10-28T14:52:28.890Z,64.44
2022-10-28T14:54:58.683Z,64.27
2022-10-28T14:57:33.842Z,64.16
2022-10-28T15:00:05.636Z,64.46
2022-10-28T15:02:35.270Z,64.70
2022-10-28T15:05:14.992Z,64.74
2022-10-28T15:07:42.700Z,64.42
2022-10-28T15:10:26.914Z,64.68
2022-10-28T15:12:56.360Z,65.05
2022-10-28T15:15:32.221Z,64.84
2022-10-28T15:18:00.324Z,64.78
2022-10-28T15:20:33.399Z,65.12
2022-10-28T15:23:21.588Z,65.22
2022-10-28T15:26:12.790Z,65.54
2022-10-28T15:28:40.672Z,65.33
2022-10-28T15:31:08.903Z,65.54
2022-10-28T15:33:41.791Z,65.66
2022-10-28T15:36:24.434Z,65.58
2022-10-28T15:38:52.221Z,65.45
2022-10-28T15:41:22.705Z,65.02
2022-10-28T15:43:58.808Z,65.04
2022-10-28T15:46:27.370Z,65.68
2022-10-28T15:48:56.552Z,65.79
2022-10-28T15:51:24.298Z,65.62
2022-10-28T15:53:54.093Z,65.89
2022-10-28T15:56:26.089Z,65.70
2022-10-28T15:58:59.661Z,66.04
2022-10-28T16:01:38.120Z,69.40
2022-10-28T16:04:26.109Z,66.66
2022-10-28T16:06:57.595Z,65.70
2022-10-28T16:09:34.087Z,65.95
2022-10-28T16:12:14.396Z,66.52
2022-10-28T16:14:47.387Z,66.18
2022-10-28T16:17:23.004Z,65.82
2022-10-28T16:19:54.677Z,66.33
2022-10-28T16:22:23.737Z,66.13
2022-10-28T16:24:53.348Z,66.38
2022-10-28T16:27:22.687Z,66.47
2022-10-28T16:29:50.674Z,66.45
2022-10-28T16:32:25.186Z,66.26
2022-10-28T16:34:52.514Z,66.31
2022-10-28T16:37:23.180Z,66.14
2022-10-28T16:39:50.699Z,65.99
2022-10-28T16:42:19.604Z,66.22
2022-10-28T16:44:47.266Z,66.71
2022-10-28T16:47:19.486Z,66.10
2022-10-28T16:49:54.197Z,65.97
2022-10-28T16:52:29.143Z,66.39
2022-10-28T16:54:57.085Z,65.79
2022-10-28T16:59:57.301Z,65.82
2022-10-28T17:02:30.852Z,66.57
2022-10-28T17:04:58.898Z,66.85
2022-10-28T17:07:27.183Z,66.30
2022-10-28T17:09:54.603Z,66.28
2022-10-28T17:12:24.384Z,66.87
2022-10-28T17:14:51.709Z,67.46
2022-10-28T17:17:19.282Z,67.00
2022-10-28T17:19:46.977Z,67.09
2022-10-28T17:22:14.435Z,66.51
2022-10-28T17:24:41.736Z,65.98
2022-10-28T17:27:09.319Z,66.10
2022-10-28T17:29:36.690Z,66.63
2022-10-28T17:32:04.729Z,66.59
2022-10-28T17:34:32.469Z,66.45
2022-10-28T17:36:59.752Z,66.50
2022-10-28T17:39:27.040Z,66.47
2022-10-28T17:41:54.869Z,66.48
2022-10-28T17:44:22.222Z,67.28
2022-10-28T17:46:51.037Z,67.00
2022-10-28T17:49:18.718Z,66.66
2022-10-28T17:51:46.116Z,66.62
2022-10-28T17:54:13.543Z,66.68
2022-10-28T17:56:42.233Z,66.31
2022-10-28T17:59:09.762Z,66.81
2022-10-28T18:01:37.233Z,67.19
2022-10-28T18:04:06.118Z,66.41
2022-10-28T18:06:33.526Z,65.57
2022-10-28T18:09:01.104Z,65.79
2022-10-28T18:11:31.267Z,65.91
2022-10-28T18:13:58.661Z,66.35
2022-10-28T18:16:28.055Z,66.63
2022-10-28T18:18:56.113Z,66.38
2022-10-28T18:21:24.455Z,66.58
2022-10-28T18:23:52.966Z,66.45
2022-10-28T18:26:21.097Z,65.99
2022-10-28T18:28:49.059Z,66.11
2022-10-28T18:31:18.447Z,66.35
2022-10-28T18:33:46.624Z,66.41
2022-10-28T18:36:19.170Z,66.45
2022-10-28T18:38:47.082Z,66.38
2022-10-28T18:41:22.140Z,67.07
2022-10-28T18:43:57.123Z,67.19
2022-10-28T18:46:25.566Z,67.14
2022-10-28T18:48:53.550Z,67.30
2022-10-28T18:51:20.918Z,66.68
2022-10-28T18:53:49.243Z,66.45
2022-10-28T18:56:18.874Z,66.72
2022-10-28T18:58:49.177Z,66.82
2022-10-28T19:01:22.424Z,66.67
2022-10-28T19:04:00.676Z,65.99
2022-10-28T19:06:32.340Z,66.10
2022-10-28T19:09:02.210Z,66.43
2022-10-28T19:11:31.490Z,66.88
2022-10-28T19:14:00.693Z,66.84
2022-10-28T19:16:28.704Z,66.36
2022-10-28T19:18:57.466Z,66.49
2022-10-28T19:21:25.797Z,67.27
2022-10-28T19:23:53.121Z,67.15
2022-10-28T19:26:20.892Z,67.22
2022-10-28T19:28:49.300Z,67.48
2022-10-28T19:31:19.220Z,66.54
2022-10-28T19:33:46.832Z,66.35
2022-10-28T19:36:25.380Z,66.67
2022-10-28T19:38:53.779Z,66.69
2022-10-28T19:41:23.832Z,66.04
2022-10-28T19:43:58.049Z,66.61
2022-10-28T19:46:28.132Z,66.16
2022-10-28T19:48:57.394Z,66.80
2022-10-28T19:51:27.375Z,67.16
2022-10-28T19:53:57.125Z,67.39
2022-10-28T19:56:24.980Z,67.43
2022-10-28T19:58:54.263Z,67.01
2022-10-28T20:01:23.330Z,66.37
2022-10-28T20:03:51.791Z,66.76
2022-10-28T20:06:22.593Z,67.32
2022-10-28T20:08:50.304Z,66.90
2022-10-28T20:11:38.083Z,67.02
2022-10-28T20:14:12.259Z,67.39
2022-10-28T20:16:42.535Z,66.88
2022-10-28T20:19:10.731Z,67.14
2022-10-28T20:21:38.273Z,67.20
2022-10-28T20:24:06.874Z,67.25
2022-10-28T20:26:36.006Z,67.11
2022-10-28T20:29:03.608Z,66.50
2022-10-28T20:31:32.165Z,66.22
2022-10-28T20:34:03.440Z,66.80
2022-10-28T20:36:36.552Z,66.65
2022-10-28T20:39:10.847Z,67.63
2022-10-28T20:41:39.430Z,68.02
2022-10-28T20:44:07.093Z,67.57
2022-10-28T20:46:35.146Z,67.18
2022-10-28T20:49:02.998Z,66.99
2022-10-28T20:51:31.835Z,67.15
2022-10-28T20:53:59.296Z,66.91
2022-10-28T20:56:29.089Z,67.15
2022-10-28T20:58:57.780Z,66.79
2022-10-28T21:01:30.229Z,66.77
2022-10-28T21:04:00.631Z,66.25
2022-10-28T21:06:29.109Z,66.84
2022-10-28T21:08:56.953Z,66.50
2022-10-28T21:11:25.123Z,67.55
2022-10-28T21:13:54.869Z,66.74
2022-10-28T21:16:22.676Z,66.83
2022-10-28T21:18:50.318Z,67.28
2022-10-28T21:21:18.947Z,67.53
2022-10-28T21:23:47.154Z,67.24
2022-10-28T21:26:14.748Z,66.88
2022-10-28T21:28:42.062Z,66.93
2022-10-28T21:31:14.348Z,67.42
2022-10-28T21:33:42.936Z,67.77
2022-10-28T21:36:20.844Z,67.95
2022-10-28T21:38:48.543Z,67.05
2022-10-28T21:41:19.920Z,67.05
2022-10-28T21:43:49.718Z,66.88
2022-10-28T21:46:18.064Z,66.79
2022-10-28T21:48:45.694Z,66.61
2022-10-28T21:51:15.361Z,66.52
2022-10-28T21:53:43.959Z,66.56
2022-10-28T21:56:18.221Z,66.80
2022-10-28T21:58:47.754Z,66.49
2022-10-28T22:01:20.572Z,66.27
2022-10-28T22:03:48.405Z,66.63
2022-10-28T22:06:15.781Z,66.07
2022-10-28T22:08:43.095Z,65.91
2022-10-28T22:11:15.782Z,65.58
2022-10-28T22:13:43.340Z,66.07
2022-10-28T22:16:12.925Z,66.49
2022-10-28T22:18:40.576Z,67.12
2022-10-28T22:21:11.474Z,66.77
2022-10-28T22:23:39.306Z,66.53
2022-10-28T22:26:08.966Z,66.78
2022-10-28T22:28:36.791Z,66.68
2022-10-28T22:31:06.934Z,67.08
2022-10-28T22:33:34.328Z,66.76
2022-10-28T22:36:04.596Z,67.00
2022-10-28T22:38:32.528Z,66.44
2022-10-28T22:41:07.209Z,66.41
2022-10-28T22:43:34.777Z,66.07
2022-10-28T22:46:02.729Z,66.04
2022-10-28T22:48:30.940Z,66.08
2022-10-28T22:50:59.134Z,66.50
2022-10-28T22:53:26.568Z,66.42
2022-10-28T22:55:54.290Z,66.13
2022-10-28T22:58:23.133Z,65.95
2022-10-28T23:00:50.775Z,66.00
2022-10-28T23:03:18.297Z,66.49
2022-10-28T23:05:46.031Z,66.51
2022-10-28T23:08:16.302Z,66.14
2022-10-28T23:10:43.629Z,66.38
2022-10-28T23:13:12.264Z,66.41
2022-10-28T23:15:39.572Z,65.92
2022-10-28T23:18:06.942Z,65.90
2022-10-28T23:20:35.706Z,65.92
2022-10-28T23:23:03.013Z,66.87
2022-10-28T23:25:30.545Z,66.92
2022-10-28T23:27:58.347Z,66.17
2022-10-28T23:30:25.926Z,66.27
2022-10-28T23:32:53.255Z,65.41
2022-10-28T23:35:20.819Z,65.65
2022-10-28T23:37:48.109Z,66.09
2022-10-28T23:40:15.569Z,66.26
2022-10-28T23:42:43.164Z,66.99
2022-10-28T23:45:10.492Z,66.96
2022-10-28T23:47:37.836Z,67.08
2022-10-28T23:50:05.500Z,67.45
2022-10-28T23:52:32.809Z,67.59
2022-10-28T23:55:00.106Z,67.80
2022-10-28T23:57:27.646Z,67.23
2022-10-28T23:59:54.946Z,67.66
